sensor_id;sensor_type;location;lat;lon;timestamp;temperature;humidity
72380;SHT30;60354;47.798;12.472;2022-12-07T00:01:21;3.67;85.41
72380;SHT30;60354;47.798;12.472;2022-12-07T00:03:50;3.69;84.42
72380;SHT30;60354;47.798;12.472;2022-12-07T00:06:17;3.69;84.26
72380;SHT30;60354;47.798;12.472;2022-12-07T00:08:42;3.70;84.50
72380;SHT30;60354;47.798;12.472;2022-12-07T00:11:13;3.73;85.24
72380;SHT30;60354;47.798;12.472;2022-12-07T00:13:39;3.70;84.65
72380;SHT30;60354;47.798;12.472;2022-12-07T00:18:31;3.66;85.79
72380;SHT30;60354;47.798;12.472;2022-12-07T00:21:06;3.63;85.77
72380;SHT30;60354;47.798;12.472;2022-12-07T00:23:33;3.63;87.22
72380;SHT30;60354;47.798;12.472;2022-12-07T00:26:09;3.60;87.37
72380;SHT30;60354;47.798;12.472;2022-12-07T00:28:35;3.64;87.00
72380;SHT30;60354;47.798;12.472;2022-12-07T00:31:03;3.66;86.66
72380;SHT30;60354;47.798;12.472;2022-12-07T00:33:29;3.66;86.53
72380;SHT30;60354;47.798;12.472;2022-12-07T00:35:56;3.66;86.15
72380;SHT30;60354;47.798;12.472;2022-12-07T00:38:22;3.66;87.24
72380;SHT30;60354;47.798;12.472;2022-12-07T00:41:18;3.62;87.67
72380;SHT30;60354;47.798;12.472;2022-12-07T00:43:45;3.64;87.64
72380;SHT30;60354;47.798;12.472;2022-12-07T00:46:11;3.62;87.42
72380;SHT30;60354;47.798;12.472;2022-12-07T00:48:37;3.57;87.19
72380;SHT30;60354;47.798;12.472;2022-12-07T00:51:04;3.53;87.02
72380;SHT30;60354;47.798;12.472;2022-12-07T00:53:30;3.53;87.35
72380;SHT30;60354;47.798;12.472;2022-12-07T00:55:56;3.56;86.51
72380;SHT30;60354;47.798;12.472;2022-12-07T00:58:22;3.53;86.48
72380;SHT30;60354;47.798;12.472;2022-12-07T01:00:49;3.53;86.02
72380;SHT30;60354;47.798;12.472;2022-12-07T01:03:15;3.43;85.55
72380;SHT30;60354;47.798;12.472;2022-12-07T01:05:50;3.42;86.58
72380;SHT30;60354;47.798;12.472;2022-12-07T01:08:16;3.42;86.61
72380;SHT30;60354;47.798;12.472;2022-12-07T01:10:41;3.39;86.93
72380;SHT30;60354;47.798;12.472;2022-12-07T01:13:07;3.32;86.84
72380;SHT30;60354;47.798;12.472;2022-12-07T01:15:32;3.29;86.45
72380;SHT30;60354;47.798;12.472;2022-12-07T01:17:57;3.22;86.43
72380;SHT30;60354;47.798;12.472;2022-12-07T01:20:23;3.15;87.12
72380;SHT30;60354;47.798;12.472;2022-12-07T01:22:48;3.13;87.10
72380;SHT30;60354;47.798;12.472;2022-12-07T01:25:14;3.13;87.81
72380;SHT30;60354;47.798;12.472;2022-12-07T01:27:39;3.05;87.84
72380;SHT30;60354;47.798;12.472;2022-12-07T01:30:06;3.05;87.58
72380;SHT30;60354;47.798;12.472;2022-12-07T01:32:32;3.04;87.87
72380;SHT30;60354;47.798;12.472;2022-12-07T01:34:58;3.09;88.21
72380;SHT30;60354;47.798;12.472;2022-12-07T01:37:23;3.04;87.73
72380;SHT30;60354;47.798;12.472;2022-12-07T01:39:50;3.11;87.86
72380;SHT30;60354;47.798;12.472;2022-12-07T01:42:18;3.05;87.75
72380;SHT30;60354;47.798;12.472;2022-12-07T01:47:50;3.16;88.44
72380;SHT30;60354;47.798;12.472;2022-12-07T01:50:17;3.12;88.39
72380;SHT30;60354;47.798;12.472;2022-12-07T01:52:44;3.09;88.72
72380;SHT30;60354;47.798;12.472;2022-12-07T01:55:12;3.07;88.98
72380;SHT30;60354;47.798;12.472;2022-12-07T01:57:41;3.02;89.37
72380;SHT30;60354;47.798;12.472;2022-12-07T02:00:08;2.99;89.68
72380;SHT30;60354;47.798;12.472;2022-12-07T02:05:22;2.92;91.25
72380;SHT30;60354;47.798;12.472;2022-12-07T02:07:49;2.92;91.82
72380;SHT30;60354;47.798;12.472;2022-12-07T02:12:44;2.87;92.44
72380;SHT30;60354;47.798;12.472;2022-12-07T02:15:11;2.84;92.37
72380;SHT30;60354;47.798;12.472;2022-12-07T02:18:28;2.81;92.49
72380;SHT30;60354;47.798;12.472;2022-12-07T02:30:50;2.87;92.28
72380;SHT30;60354;47.798;12.472;2022-12-07T02:33:27;2.89;91.95
72380;SHT30;60354;47.798;12.472;2022-12-07T02:36:09;2.97;92.53
72380;SHT30;60354;47.798;12.472;2022-12-07T02:38:54;2.97;92.30
72380;SHT30;60354;47.798;12.472;2022-12-07T02:43:55;3.01;92.01
72380;SHT30;60354;47.798;12.472;2022-12-07T02:46:27;3.05;91.89
72380;SHT30;60354;47.798;12.472;2022-12-07T02:48:54;3.05;91.57
72380;SHT30;60354;47.798;12.472;2022-12-07T02:51:21;3.07;91.90
72380;SHT30;60354;47.798;12.472;2022-12-07T02:53:47;3.09;91.03
72380;SHT30;60354;47.798;12.472;2022-12-07T03:05:13;3.22;90.47
72380;SHT30;60354;47.798;12.472;2022-12-07T03:10:40;3.20;90.48
72380;SHT30;60354;47.798;12.472;2022-12-07T03:16:16;3.23;90.00
72380;SHT30;60354;47.798;12.472;2022-12-07T03:18:49;3.23;90.56
72380;SHT30;60354;47.798;12.472;2022-12-07T03:21:19;3.25;90.03
72380;SHT30;60354;47.798;12.472;2022-12-07T03:23:49;3.25;90.28
72380;SHT30;60354;47.798;12.472;2022-12-07T03:26:17;3.23;90.24
72380;SHT30;60354;47.798;12.472;2022-12-07T03:28:49;3.22;90.10
72380;SHT30;60354;47.798;12.472;2022-12-07T03:31:22;3.19;90.36
72380;SHT30;60354;47.798;12.472;2022-12-07T03:34:16;3.18;90.87
72380;SHT30;60354;47.798;12.472;2022-12-07T03:36:56;3.15;90.60
72380;SHT30;60354;47.798;12.472;2022-12-07T03:39:44;3.11;90.51
72380;SHT30;60354;47.798;12.472;2022-12-07T03:42:12;3.11;90.45
72380;SHT30;60354;47.798;12.472;2022-12-07T03:44:38;3.05;90.40
72380;SHT30;60354;47.798;12.472;2022-12-07T03:47:11;3.11;90.65
72380;SHT30;60354;47.798;12.472;2022-12-07T03:52:23;3.11;90.12
72380;SHT30;60354;47.798;12.472;2022-12-07T03:55:00;3.12;90.11
72380;SHT30;60354;47.798;12.472;2022-12-07T03:57:29;3.11;90.11
72380;SHT30;60354;47.798;12.472;2022-12-07T03:59:57;3.07;90.41
72380;SHT30;60354;47.798;12.472;2022-12-07T04:02:24;3.07;90.42
72380;SHT30;60354;47.798;12.472;2022-12-07T04:04:50;3.08;90.16
72380;SHT30;60354;47.798;12.472;2022-12-07T04:07:16;3.04;90.58
72380;SHT30;60354;47.798;12.472;2022-12-07T04:09:41;2.95;90.97
72380;SHT30;60354;47.798;12.472;2022-12-07T04:12:07;2.92;90.86
72380;SHT30;60354;47.798;12.472;2022-12-07T04:14:33;2.87;90.80
72380;SHT30;60354;47.798;12.472;2022-12-07T04:16:58;2.85;90.71
72380;SHT30;60354;47.798;12.472;2022-12-07T04:19:30;2.84;90.91
72380;SHT30;60354;47.798;12.472;2022-12-07T04:21:56;2.78;90.63
72380;SHT30;60354;47.798;12.472;2022-12-07T04:24:22;2.74;90.66
72380;SHT30;60354;47.798;12.472;2022-12-07T04:26:48;2.73;91.01
72380;SHT30;60354;47.798;12.472;2022-12-07T04:29:14;2.76;91.19
72380;SHT30;60354;47.798;12.472;2022-12-07T04:31:39;2.73;90.78
72380;SHT30;60354;47.798;12.472;2022-12-07T04:34:06;2.76;90.78
72380;SHT30;60354;47.798;12.472;2022-12-07T04:36:32;2.76;90.67
72380;SHT30;60354;47.798;12.472;2022-12-07T04:38:57;2.80;90.84
72380;SHT30;60354;47.798;12.472;2022-12-07T04:41:23;2.81;90.77
72380;SHT30;60354;47.798;12.472;2022-12-07T04:44:03;2.85;90.81
72380;SHT30;60354;47.798;12.472;2022-12-07T04:46:30;2.92;90.48
72380;SHT30;60354;47.798;12.472;2022-12-07T04:48:57;2.95;90.25
72380;SHT30;60354;47.798;12.472;2022-12-07T04:51:25;2.95;90.10
72380;SHT30;60354;47.798;12.472;2022-12-07T04:53:51;2.95;89.96
72380;SHT30;60354;47.798;12.472;2022-12-07T04:56:17;2.95;90.20
72380;SHT30;60354;47.798;12.472;2022-12-07T04:58:44;3.02;90.19
72380;SHT30;60354;47.798;12.472;2022-12-07T05:01:10;2.97;89.97
72380;SHT30;60354;47.798;12.472;2022-12-07T05:03:36;3.01;89.76
72380;SHT30;60354;47.798;12.472;2022-12-07T05:06:02;3.04;90.02
72380;SHT30;60354;47.798;12.472;2022-12-07T05:08:28;3.01;89.36
72380;SHT30;60354;47.798;12.472;2022-12-07T05:10:53;3.07;89.50
72380;SHT30;60354;47.798;12.472;2022-12-07T05:13:19;3.04;88.82
72380;SHT30;60354;47.798;12.472;2022-12-07T05:15:46;3.08;89.21
72380;SHT30;60354;47.798;12.472;2022-12-07T05:18:12;3.11;88.98
72380;SHT30;60354;47.798;12.472;2022-12-07T05:20:38;3.12;89.38
72380;SHT30;60354;47.798;12.472;2022-12-07T05:23:04;3.13;89.62
72380;SHT30;60354;47.798;12.472;2022-12-07T05:25:30;3.15;89.11
72380;SHT30;60354;47.798;12.472;2022-12-07T05:27:56;3.20;88.90
72380;SHT30;60354;47.798;12.472;2022-12-07T05:30:23;3.18;88.83
72380;SHT30;60354;47.798;12.472;2022-12-07T05:32:48;3.19;89.18
72380;SHT30;60354;47.798;12.472;2022-12-07T05:35:13;3.18;89.08
72380;SHT30;60354;47.798;12.472;2022-12-07T05:37:39;3.09;88.53
72380;SHT30;60354;47.798;12.472;2022-12-07T05:40:05;3.05;88.61
72380;SHT30;60354;47.798;12.472;2022-12-07T05:42:30;3.11;88.76
72380;SHT30;60354;47.798;12.472;2022-12-07T05:44:56;3.15;88.91
72380;SHT30;60354;47.798;12.472;2022-12-07T05:47:21;3.19;88.65
72380;SHT30;60354;47.798;12.472;2022-12-07T05:49:47;3.22;88.58
72380;SHT30;60354;47.798;12.472;2022-12-07T05:52:12;3.23;88.86
72380;SHT30;60354;47.798;12.472;2022-12-07T05:54:38;3.22;88.97
72380;SHT30;60354;47.798;12.472;2022-12-07T05:57:03;3.22;88.93
72380;SHT30;60354;47.798;12.472;2022-12-07T05:59:29;3.25;88.68
72380;SHT30;60354;47.798;12.472;2022-12-07T06:01:57;3.26;88.56
72380;SHT30;60354;47.798;12.472;2022-12-07T06:04:25;3.25;88.51
72380;SHT30;60354;47.798;12.472;2022-12-07T06:06:54;3.25;88.56
72380;SHT30;60354;47.798;12.472;2022-12-07T06:09:21;3.23;88.91
72380;SHT30;60354;47.798;12.472;2022-12-07T06:11:47;3.20;88.63
72380;SHT30;60354;47.798;12.472;2022-12-07T06:14:31;3.22;88.64
72380;SHT30;60354;47.798;12.472;2022-12-07T06:16:56;3.22;89.03
72380;SHT30;60354;47.798;12.472;2022-12-07T06:19:22;3.23;88.89
72380;SHT30;60354;47.798;12.472;2022-12-07T06:21:48;3.28;88.86
72380;SHT30;60354;47.798;12.472;2022-12-07T06:24:14;3.26;88.47
72380;SHT30;60354;47.798;12.472;2022-12-07T06:26:41;3.28;88.65
72380;SHT30;60354;47.798;12.472;2022-12-07T06:29:06;3.26;88.31
72380;SHT30;60354;47.798;12.472;2022-12-07T06:31:32;3.23;88.31
72380;SHT30;60354;47.798;12.472;2022-12-07T06:34:02;3.23;88.67
72380;SHT30;60354;47.798;12.472;2022-12-07T06:36:28;3.22;88.65
72380;SHT30;60354;47.798;12.472;2022-12-07T06:38:54;3.18;89.16
72380;SHT30;60354;47.798;12.472;2022-12-07T06:41:20;3.18;88.88
72380;SHT30;60354;47.798;12.472;2022-12-07T06:43:45;3.18;88.87
72380;SHT30;60354;47.798;12.472;2022-12-07T06:46:10;3.12;89.04
72380;SHT30;60354;47.798;12.472;2022-12-07T06:48:36;3.11;88.96
72380;SHT30;60354;47.798;12.472;2022-12-07T06:51:01;3.12;89.22
72380;SHT30;60354;47.798;12.472;2022-12-07T06:53:27;3.12;89.05
72380;SHT30;60354;47.798;12.472;2022-12-07T06:55:53;3.16;88.84
72380;SHT30;60354;47.798;12.472;2022-12-07T06:58:18;3.20;88.78
72380;SHT30;60354;47.798;12.472;2022-12-07T07:00:44;3.19;89.14
72380;SHT30;60354;47.798;12.472;2022-12-07T07:03:10;3.23;88.78
72380;SHT30;60354;47.798;12.472;2022-12-07T07:05:36;3.23;88.60
72380;SHT30;60354;47.798;12.472;2022-12-07T07:08:01;3.23;88.47
72380;SHT30;60354;47.798;12.472;2022-12-07T07:10:28;3.20;89.01
72380;SHT30;60354;47.798;12.472;2022-12-07T07:12:53;3.18;88.40
72380;SHT30;60354;47.798;12.472;2022-12-07T07:15:18;3.15;88.45
72380;SHT30;60354;47.798;12.472;2022-12-07T07:17:44;3.18;88.88
72380;SHT30;60354;47.798;12.472;2022-12-07T07:20:10;3.15;88.74
72380;SHT30;60354;47.798;12.472;2022-12-07T07:22:35;3.15;88.97
72380;SHT30;60354;47.798;12.472;2022-12-07T07:25:01;3.12;89.05
72380;SHT30;60354;47.798;12.472;2022-12-07T07:27:26;3.08;89.23
72380;SHT30;60354;47.798;12.472;2022-12-07T07:29:52;3.11;89.72
72380;SHT30;60354;47.798;12.472;2022-12-07T07:32:17;3.09;89.50
72380;SHT30;60354;47.798;12.472;2022-12-07T07:34:43;3.09;89.61
72380;SHT30;60354;47.798;12.472;2022-12-07T07:37:08;3.12;89.98
72380;SHT30;60354;47.798;12.472;2022-12-07T07:39:36;3.15;89.57
72380;SHT30;60354;47.798;12.472;2022-12-07T07:42:01;3.07;89.83
72380;SHT30;60354;47.798;12.472;2022-12-07T07:44:27;3.07;90.39
72380;SHT30;60354;47.798;12.472;2022-12-07T07:46:52;3.05;90.79
72380;SHT30;60354;47.798;12.472;2022-12-07T07:49:18;3.04;90.64
72380;SHT30;60354;47.798;12.472;2022-12-07T07:51:43;3.02;90.48
72380;SHT30;60354;47.798;12.472;2022-12-07T07:54:09;3.01;91.42
72380;SHT30;60354;47.798;12.472;2022-12-07T07:56:35;2.94;91.78
72380;SHT30;60354;47.798;12.472;2022-12-07T07:59:00;2.92;91.88
72380;SHT30;60354;47.798;12.472;2022-12-07T08:01:26;2.83;91.85
72380;SHT30;60354;47.798;12.472;2022-12-07T08:03:51;2.73;92.42
72380;SHT30;60354;47.798;12.472;2022-12-07T08:06:16;2.67;92.39
72380;SHT30;60354;47.798;12.472;2022-12-07T08:08:42;2.57;92.28
72380;SHT30;60354;47.798;12.472;2022-12-07T08:11:08;2.47;92.62
72380;SHT30;60354;47.798;12.472;2022-12-07T08:13:34;2.30;91.80
72380;SHT30;60354;47.798;12.472;2022-12-07T08:16:05;2.38;93.51
72380;SHT30;60354;47.798;12.472;2022-12-07T08:18:35;2.76;91.82
72380;SHT30;60354;47.798;12.472;2022-12-07T08:21:01;2.48;90.07
72380;SHT30;60354;47.798;12.472;2022-12-07T08:23:27;2.47;90.10
72380;SHT30;60354;47.798;12.472;2022-12-07T08:25:53;2.41;90.25
72380;SHT30;60354;47.798;12.472;2022-12-07T08:28:18;2.43;90.25
72380;SHT30;60354;47.798;12.472;2022-12-07T08:30:43;2.41;90.30
72380;SHT30;60354;47.798;12.472;2022-12-07T08:33:09;2.43;90.75
72380;SHT30;60354;47.798;12.472;2022-12-07T08:35:36;2.47;90.31
72380;SHT30;60354;47.798;12.472;2022-12-07T08:38:02;2.54;90.27
72380;SHT30;60354;47.798;12.472;2022-12-07T08:40:29;2.58;90.07
72380;SHT30;60354;47.798;12.472;2022-12-07T08:42:55;2.60;89.72
72380;SHT30;60354;47.798;12.472;2022-12-07T08:45:21;2.62;89.59
72380;SHT30;60354;47.798;12.472;2022-12-07T08:47:54;2.56;89.48
72380;SHT30;60354;47.798;12.472;2022-12-07T08:50:20;2.60;89.72
72380;SHT30;60354;47.798;12.472;2022-12-07T08:52:52;2.54;89.54
72380;SHT30;60354;47.798;12.472;2022-12-07T08:55:19;2.57;90.20
72380;SHT30;60354;47.798;12.472;2022-12-07T08:57:45;2.60;89.50
72380;SHT30;60354;47.798;12.472;2022-12-07T09:00:11;2.57;89.05
72380;SHT30;60354;47.798;12.472;2022-12-07T09:02:37;2.65;89.17
72380;SHT30;60354;47.798;12.472;2022-12-07T09:05:03;2.73;89.15
72380;SHT30;60354;47.798;12.472;2022-12-07T09:07:30;2.76;88.79
72380;SHT30;60354;47.798;12.472;2022-12-07T09:09:56;2.85;89.12
72380;SHT30;60354;47.798;12.472;2022-12-07T09:12:22;2.92;88.86
72380;SHT30;60354;47.798;12.472;2022-12-07T09:14:47;2.88;89.35
72380;SHT30;60354;47.798;12.472;2022-12-07T09:17:13;2.85;88.30
72380;SHT30;60354;47.798;12.472;2022-12-07T09:19:39;2.80;88.13
72380;SHT30;60354;47.798;12.472;2022-12-07T09:22:06;2.84;87.91
72380;SHT30;60354;47.798;12.472;2022-12-07T09:24:32;2.80;87.51
72380;SHT30;60354;47.798;12.472;2022-12-07T09:26:58;2.84;87.38
72380;SHT30;60354;47.798;12.472;2022-12-07T09:29:24;2.84;87.78
72380;SHT30;60354;47.798;12.472;2022-12-07T09:31:50;2.81;86.92
72380;SHT30;60354;47.798;12.472;2022-12-07T09:34:16;2.76;86.07
72380;SHT30;60354;47.798;12.472;2022-12-07T09:36:41;2.78;85.93
72380;SHT30;60354;47.798;12.472;2022-12-07T09:39:08;2.85;86.21
72380;SHT30;60354;47.798;12.472;2022-12-07T09:41:37;2.80;85.44
72380;SHT30;60354;47.798;12.472;2022-12-07T09:44:23;2.81;84.31
72380;SHT30;60354;47.798;12.472;2022-12-07T09:46:49;2.85;83.12
72380;SHT30;60354;47.798;12.472;2022-12-07T09:49:23;2.92;83.71
72380;SHT30;60354;47.798;12.472;2022-12-07T09:52:01;2.98;83.05
72380;SHT30;60354;47.798;12.472;2022-12-07T09:54:28;3.01;82.47
72380;SHT30;60354;47.798;12.472;2022-12-07T09:56:54;3.01;82.44
72380;SHT30;60354;47.798;12.472;2022-12-07T09:59:20;3.09;83.81
72380;SHT30;60354;47.798;12.472;2022-12-07T10:01:49;3.19;83.59
72380;SHT30;60354;47.798;12.472;2022-12-07T10:04:19;3.15;82.46
72380;SHT30;60354;47.798;12.472;2022-12-07T10:06:46;3.25;82.07
72380;SHT30;60354;47.798;12.472;2022-12-07T10:09:15;3.20;81.46
72380;SHT30;60354;47.798;12.472;2022-12-07T10:12:07;3.23;82.91
72380;SHT30;60354;47.798;12.472;2022-12-07T10:14:48;3.16;83.98
72380;SHT30;60354;47.798;12.472;2022-12-07T10:17:38;3.16;86.30
72380;SHT30;60354;47.798;12.472;2022-12-07T10:22:37;3.13;83.89
72380;SHT30;60354;47.798;12.472;2022-12-07T10:25:19;3.13;84.83
72380;SHT30;60354;47.798;12.472;2022-12-07T10:27:57;3.18;85.41
72380;SHT30;60354;47.798;12.472;2022-12-07T10:30:22;3.16;86.01
72380;SHT30;60354;47.798;12.472;2022-12-07T10:32:48;3.16;85.34
72380;SHT30;60354;47.798;12.472;2022-12-07T10:37:49;2.99;85.70
72380;SHT30;60354;47.798;12.472;2022-12-07T10:43:20;2.99;86.27
72380;SHT30;60354;47.798;12.472;2022-12-07T10:46:16;3.02;85.93
72380;SHT30;60354;47.798;12.472;2022-12-07T10:51:49;2.98;86.23
72380;SHT30;60354;47.798;12.472;2022-12-07T11:00:23;2.98;85.92
72380;SHT30;60354;47.798;12.472;2022-12-07T11:03:18;2.98;85.27
72380;SHT30;60354;47.798;12.472;2022-12-07T11:08:29;3.05;85.93
72380;SHT30;60354;47.798;12.472;2022-12-07T11:11:09;3.07;84.86
72380;SHT30;60354;47.798;12.472;2022-12-07T11:16:24;3.08;84.95
72380;SHT30;60354;47.798;12.472;2022-12-07T11:21:57;3.15;84.05
72380;SHT30;60354;47.798;12.472;2022-12-07T11:33:29;3.23;84.79
72380;SHT30;60354;47.798;12.472;2022-12-07T11:35:36;3.26;84.84
72380;SHT30;60354;47.798;12.472;2022-12-07T11:38:27;3.28;84.76
72380;SHT30;60354;47.798;12.472;2022-12-07T11:40:51;3.18;84.37
72380;SHT30;60354;47.798;12.472;2022-12-07T11:43:35;3.25;83.87
72380;SHT30;60354;47.798;12.472;2022-12-07T11:46:20;3.19;84.40
72380;SHT30;60354;47.798;12.472;2022-12-07T11:49:03;3.23;85.28
72380;SHT30;60354;47.798;12.472;2022-12-07T11:51:34;3.32;84.97
72380;SHT30;60354;47.798;12.472;2022-12-07T11:54:35;3.35;84.64
72380;SHT30;60354;47.798;12.472;2022-12-07T11:57:10;3.35;84.35
72380;SHT30;60354;47.798;12.472;2022-12-07T11:59:44;3.35;83.67
72380;SHT30;60354;47.798;12.472;2022-12-07T12:02:13;3.40;83.34
72380;SHT30;60354;47.798;12.472;2022-12-07T12:07:07;3.49;83.26
72380;SHT30;60354;47.798;12.472;2022-12-07T12:09:49;3.52;84.30
72380;SHT30;60354;47.798;12.472;2022-12-07T12:21:22;3.62;84.72
72380;SHT30;60354;47.798;12.472;2022-12-07T12:23:27;3.64;84.55
72380;SHT30;60354;47.798;12.472;2022-12-07T12:26:04;3.69;84.79
72380;SHT30;60354;47.798;12.472;2022-12-07T12:33:50;3.74;83.44
72380;SHT30;60354;47.798;12.472;2022-12-07T12:36:20;3.80;83.87
72380;SHT30;60354;47.798;12.472;2022-12-07T12:51:50;3.98;83.41
72380;SHT30;60354;47.798;12.472;2022-12-07T12:54:24;3.93;82.96
72380;SHT30;60354;47.798;12.472;2022-12-07T12:57:12;4.04;83.42
72380;SHT30;60354;47.798;12.472;2022-12-07T12:59:42;4.11;83.85
72380;SHT30;60354;47.798;12.472;2022-12-07T13:02:30;4.10;84.00
72380;SHT30;60354;47.798;12.472;2022-12-07T13:10:39;4.17;82.49
72380;SHT30;60354;47.798;12.472;2022-12-07T13:23:37;4.21;82.40
72380;SHT30;60354;47.798;12.472;2022-12-07T13:26:22;4.25;82.31
72380;SHT30;60354;47.798;12.472;2022-12-07T13:29:10;4.24;82.90
72380;SHT30;60354;47.798;12.472;2022-12-07T13:31:43;4.21;82.74
72380;SHT30;60354;47.798;12.472;2022-12-07T13:36:57;4.22;83.21
72380;SHT30;60354;47.798;12.472;2022-12-07T13:39:25;4.24;83.06
72380;SHT30;60354;47.798;12.472;2022-12-07T13:41:53;4.27;82.65
72380;SHT30;60354;47.798;12.472;2022-12-07T13:44:20;4.19;82.14
72380;SHT30;60354;47.798;12.472;2022-12-07T13:47:05;4.15;82.36
72380;SHT30;60354;47.798;12.472;2022-12-07T13:49:37;4.12;83.16
72380;SHT30;60354;47.798;12.472;2022-12-07T13:57:22;4.10;82.61
72380;SHT30;60354;47.798;12.472;2022-12-07T13:59:49;4.10;82.68
72380;SHT30;60354;47.798;12.472;2022-12-07T14:02:34;4.08;82.95
72380;SHT30;60354;47.798;12.472;2022-12-07T14:05:23;4.14;82.88
72380;SHT30;60354;47.798;12.472;2022-12-07T14:07:54;4.17;83.03
72380;SHT30;60354;47.798;12.472;2022-12-07T14:12:54;4.17;83.05
72380;SHT30;60354;47.798;12.472;2022-12-07T14:15:23;4.17;82.50
72380;SHT30;60354;47.798;12.472;2022-12-07T14:17:53;4.29;83.39
72380;SHT30;60354;47.798;12.472;2022-12-07T14:20:38;4.28;82.81
72380;SHT30;60354;47.798;12.472;2022-12-07T14:23:05;4.28;83.00
72380;SHT30;60354;47.798;12.472;2022-12-07T14:25:46;4.27;83.43
72380;SHT30;60354;47.798;12.472;2022-12-07T14:28:33;4.24;83.96
72380;SHT30;60354;47.798;12.472;2022-12-07T14:31:00;4.12;85.11
72380;SHT30;60354;47.798;12.472;2022-12-07T14:33:26;4.05;85.38
72380;SHT30;60354;47.798;12.472;2022-12-07T14:35:52;4.08;85.55
72380;SHT30;60354;47.798;12.472;2022-12-07T14:38:21;4.11;85.61
72380;SHT30;60354;47.798;12.472;2022-12-07T14:40:47;4.10;85.87
72380;SHT30;60354;47.798;12.472;2022-12-07T14:43:16;4.12;85.75
72380;SHT30;60354;47.798;12.472;2022-12-07T14:45:42;4.14;85.81
72380;SHT30;60354;47.798;12.472;2022-12-07T14:48:11;4.15;85.63
72380;SHT30;60354;47.798;12.472;2022-12-07T14:50:39;4.10;85.59
72380;SHT30;60354;47.798;12.472;2022-12-07T14:53:14;4.04;85.14
72380;SHT30;60354;47.798;12.472;2022-12-07T14:55:40;4.08;85.27
72380;SHT30;60354;47.798;12.472;2022-12-07T14:58:05;4.07;85.09
72380;SHT30;60354;47.798;12.472;2022-12-07T15:00:31;4.07;85.33
72380;SHT30;60354;47.798;12.472;2022-12-07T15:02:58;4.08;84.68
72380;SHT30;60354;47.798;12.472;2022-12-07T15:05:24;4.05;84.84
72380;SHT30;60354;47.798;12.472;2022-12-07T15:07:49;4.05;86.16
72380;SHT30;60354;47.798;12.472;2022-12-07T15:10:18;4.00;86.62
72380;SHT30;60354;47.798;12.472;2022-12-07T15:12:44;4.01;86.51
72380;SHT30;60354;47.798;12.472;2022-12-07T15:15:10;4.01;87.85
72380;SHT30;60354;47.798;12.472;2022-12-07T15:17:35;3.94;87.84
72380;SHT30;60354;47.798;12.472;2022-12-07T15:20:01;3.91;88.13
72380;SHT30;60354;47.798;12.472;2022-12-07T15:22:26;3.87;87.59
72380;SHT30;60354;47.798;12.472;2022-12-07T15:24:52;3.94;87.72
72380;SHT30;60354;47.798;12.472;2022-12-07T15:27:17;3.87;87.46
72380;SHT30;60354;47.798;12.472;2022-12-07T15:29:43;3.86;87.96
72380;SHT30;60354;47.798;12.472;2022-12-07T15:32:08;3.84;88.09
72380;SHT30;60354;47.798;12.472;2022-12-07T15:34:34;3.81;88.61
72380;SHT30;60354;47.798;12.472;2022-12-07T15:36:59;3.76;88.63
72380;SHT30;60354;47.798;12.472;2022-12-07T15:39:25;3.71;89.13
72380;SHT30;60354;47.798;12.472;2022-12-07T15:41:50;3.69;88.60
72380;SHT30;60354;47.798;12.472;2022-12-07T15:44:16;3.69;88.52
72380;SHT30;60354;47.798;12.472;2022-12-07T15:47:00;3.69;88.64
72380;SHT30;60354;47.798;12.472;2022-12-07T15:49:26;3.73;88.37
72380;SHT30;60354;47.798;12.472;2022-12-07T15:51:52;3.76;87.92
72380;SHT30;60354;47.798;12.472;2022-12-07T15:54:24;3.81;87.76
72380;SHT30;60354;47.798;12.472;2022-12-07T15:56:50;3.83;87.49
72380;SHT30;60354;47.798;12.472;2022-12-07T15:59:15;3.77;87.13
72380;SHT30;60354;47.798;12.472;2022-12-07T16:01:41;3.77;87.12
72380;SHT30;60354;47.798;12.472;2022-12-07T16:04:07;3.79;87.18
72380;SHT30;60354;47.798;12.472;2022-12-07T16:06:32;3.81;87.01
72380;SHT30;60354;47.798;12.472;2022-12-07T16:08:58;3.77;86.58
72380;SHT30;60354;47.798;12.472;2022-12-07T16:11:23;3.76;86.80
72380;SHT30;60354;47.798;12.472;2022-12-07T16:13:49;3.79;87.06
72380;SHT30;60354;47.798;12.472;2022-12-07T16:16:17;3.88;86.97
72380;SHT30;60354;47.798;12.472;2022-12-07T16:18:45;3.88;86.39
72380;SHT30;60354;47.798;12.472;2022-12-07T16:21:11;3.90;86.41
72380;SHT30;60354;47.798;12.472;2022-12-07T16:23:37;3.81;87.07
72380;SHT30;60354;47.798;12.472;2022-12-07T16:26:12;3.70;87.60
72380;SHT30;60354;47.798;12.472;2022-12-07T16:28:39;3.73;87.65
72380;SHT30;60354;47.798;12.472;2022-12-07T16:31:06;3.70;87.91
72380;SHT30;60354;47.798;12.472;2022-12-07T16:33:37;3.70;88.51
72380;SHT30;60354;47.798;12.472;2022-12-07T16:36:04;3.69;87.67
72380;SHT30;60354;47.798;12.472;2022-12-07T16:38:29;3.67;88.11
72380;SHT30;60354;47.798;12.472;2022-12-07T16:40:55;3.66;88.22
72380;SHT30;60354;47.798;12.472;2022-12-07T16:43:21;3.66;88.55
72380;SHT30;60354;47.798;12.472;2022-12-07T16:45:47;3.63;88.02
72380;SHT30;60354;47.798;12.472;2022-12-07T16:48:13;3.59;88.25
72380;SHT30;60354;47.798;12.472;2022-12-07T16:50:39;3.46;88.70
72380;SHT30;60354;47.798;12.472;2022-12-07T16:53:06;3.25;88.41
72380;SHT30;60354;47.798;12.472;2022-12-07T16:55:35;3.23;89.19
72380;SHT30;60354;47.798;12.472;2022-12-07T16:58:01;3.23;88.65
72380;SHT30;60354;47.798;12.472;2022-12-07T17:00:26;3.19;88.35
72380;SHT30;60354;47.798;12.472;2022-12-07T17:02:51;3.28;88.58
72380;SHT30;60354;47.798;12.472;2022-12-07T17:05:17;3.30;88.29
72380;SHT30;60354;47.798;12.472;2022-12-07T17:07:42;3.38;89.94
72380;SHT30;60354;47.798;12.472;2022-12-07T17:10:08;3.39;89.79
72380;SHT30;60354;47.798;12.472;2022-12-07T17:12:34;3.40;89.41
72380;SHT30;60354;47.798;12.472;2022-12-07T17:14:59;3.38;88.96
72380;SHT30;60354;47.798;12.472;2022-12-07T17:17:44;3.39;89.04
72380;SHT30;60354;47.798;12.472;2022-12-07T17:20:11;3.39;89.41
72380;SHT30;60354;47.798;12.472;2022-12-07T17:22:36;3.42;89.24
72380;SHT30;60354;47.798;12.472;2022-12-07T17:25:04;3.39;88.90
72380;SHT30;60354;47.798;12.472;2022-12-07T17:27:30;3.40;89.23
72380;SHT30;60354;47.798;12.472;2022-12-07T17:29:56;3.43;88.99
72380;SHT30;60354;47.798;12.472;2022-12-07T17:32:22;3.46;88.74
72380;SHT30;60354;47.798;12.472;2022-12-07T17:34:47;3.46;88.69
72380;SHT30;60354;47.798;12.472;2022-12-07T17:37:13;3.44;88.01
72380;SHT30;60354;47.798;12.472;2022-12-07T17:39:38;3.43;87.70
72380;SHT30;60354;47.798;12.472;2022-12-07T17:42:04;3.25;88.82
72380;SHT30;60354;47.798;12.472;2022-12-07T17:45:07;3.18;88.95
72380;SHT30;60354;47.798;12.472;2022-12-07T17:47:35;3.09;89.70
72380;SHT30;60354;47.798;12.472;2022-12-07T17:50:00;3.07;89.94
72380;SHT30;60354;47.798;12.472;2022-12-07T17:52:26;3.12;89.73